sensor_id;sensor_type;location;lat;lon;timestamp;P1;durP1;ratioP1;P2;durP2;ratioP2
48203;SDS011;33994;50.998;5.864;2023-04-28T00:02:45;14.73;;;8.93;;
48203;SDS011;33994;50.998;5.864;2023-04-28T00:05:48;18.52;;;9.52;;
48203;SDS011;33994;50.998;5.864;2023-04-28T00:08:51;21.05;;;8.68;;
48203;SDS011;33994;50.998;5.864;2023-04-28T00:11:56;19.10;;;9.35;;
48203;SDS011;33994;50.998;5.864;2023-04-28T00:14:59;16.65;;;8.48;;
48203;SDS011;33994;50.998;5.864;2023-04-28T00:18:02;18.27;;;9.23;;
48203;SDS011;33994;50.998;5.864;2023-04-28T00:21:05;18.20;;;9.10;;
48203;SDS011;33994;50.998;5.864;2023-04-28T00:24:08;15.18;;;8.77;;
48203;SDS011;33994;50.998;5.864;2023-04-28T00:27:13;16.25;;;9.38;;
48203;SDS011;33994;50.998;5.864;2023-04-28T00:30:17;15.98;;;9.02;;
48203;SDS011;33994;50.998;5.864;2023-04-28T00:33:19;18.77;;;8.80;;
48203;SDS011;33994;50.998;5.864;2023-04-28T00:36:23;21.83;;;9.60;;
48203;SDS011;33994;50.998;5.864;2023-04-28T00:39:26;14.30;;;8.80;;
48203;SDS011;33994;50.998;5.864;2023-04-28T00:42:30;16.40;;;9.52;;
48203;SDS011;33994;50.998;5.864;2023-04-28T00:45:33;15.23;;;8.95;;
48203;SDS011;33994;50.998;5.864;2023-04-28T00:48:37;20.63;;;9.52;;
48203;SDS011;33994;50.998;5.864;2023-04-28T00:51:40;18.50;;;8.77;;
48203;SDS011;33994;50.998;5.864;2023-04-28T00:54:44;20.95;;;9.63;;
48203;SDS011;33994;50.998;5.864;2023-04-28T00:57:49;18.00;;;9.60;;
48203;SDS011;33994;50.998;5.864;2023-04-28T01:00:59;17.38;;;9.25;;
48203;SDS011;33994;50.998;5.864;2023-04-28T01:04:04;16.15;;;9.60;;
48203;SDS011;33994;50.998;5.864;2023-04-28T01:07:07;16.92;;;8.98;;
48203;SDS011;33994;50.998;5.864;2023-04-28T01:10:10;17.80;;;9.68;;
48203;SDS011;33994;50.998;5.864;2023-04-28T01:13:15;16.05;;;9.32;;
48203;SDS011;33994;50.998;5.864;2023-04-28T01:16:18;16.50;;;9.85;;
48203;SDS011;33994;50.998;5.864;2023-04-28T01:19:21;19.70;;;9.82;;
48203;SDS011;33994;50.998;5.864;2023-04-28T01:22:24;20.30;;;10.18;;
48203;SDS011;33994;50.998;5.864;2023-04-28T01:25:29;21.00;;;9.85;;
48203;SDS011;33994;50.998;5.864;2023-04-28T01:28:32;17.05;;;9.43;;
48203;SDS011;33994;50.998;5.864;2023-04-28T01:31:35;20.80;;;10.27;;
48203;SDS011;33994;50.998;5.864;2023-04-28T01:34:38;23.02;;;9.68;;
48203;SDS011;33994;50.998;5.864;2023-04-28T01:37:41;17.33;;;10.02;;
48203;SDS011;33994;50.998;5.864;2023-04-28T01:40:46;17.25;;;9.70;;
48203;SDS011;33994;50.998;5.864;2023-04-28T01:43:49;22.75;;;10.65;;
48203;SDS011;33994;50.998;5.864;2023-04-28T01:46:52;23.70;;;10.18;;
48203;SDS011;33994;50.998;5.864;2023-04-28T01:49:55;20.02;;;10.80;;
48203;SDS011;33994;50.998;5.864;2023-04-28T01:52:58;19.25;;;10.25;;
48203;SDS011;33994;50.998;5.864;2023-04-28T01:56:03;19.92;;;11.00;;
48203;SDS011;33994;50.998;5.864;2023-04-28T01:59:06;18.63;;;10.27;;
48203;SDS011;33994;50.998;5.864;2023-04-28T02:02:09;24.48;;;11.40;;
48203;SDS011;33994;50.998;5.864;2023-04-28T02:05:13;23.65;;;11.65;;
48203;SDS011;33994;50.998;5.864;2023-04-28T02:08:15;18.83;;;11.18;;
48203;SDS011;33994;50.998;5.864;2023-04-28T02:11:20;26.13;;;12.10;;
48203;SDS011;33994;50.998;5.864;2023-04-28T02:14:23;23.35;;;11.90;;
48203;SDS011;33994;50.998;5.864;2023-04-28T02:17:28;20.65;;;11.98;;
48203;SDS011;33994;50.998;5.864;2023-04-28T02:20:31;24.10;;;11.13;;
48203;SDS011;33994;50.998;5.864;2023-04-28T02:23:34;20.98;;;10.85;;
48203;SDS011;33994;50.998;5.864;2023-04-28T02:26:39;20.30;;;11.98;;
48203;SDS011;33994;50.998;5.864;2023-04-28T02:29:42;20.55;;;11.07;;
48203;SDS011;33994;50.998;5.864;2023-04-28T02:32:45;17.00;;;11.13;;
48203;SDS011;33994;50.998;5.864;2023-04-28T02:35:57;18.30;;;10.90;;
48203;SDS011;33994;50.998;5.864;2023-04-28T02:39:00;22.95;;;12.07;;
48203;SDS011;33994;50.998;5.864;2023-04-28T02:42:04;22.63;;;12.07;;
48203;SDS011;33994;50.998;5.864;2023-04-28T02:45:08;24.35;;;11.93;;
48203;SDS011;33994;50.998;5.864;2023-04-28T02:48:11;28.02;;;12.02;;
48203;SDS011;33994;50.998;5.864;2023-04-28T02:51:14;22.95;;;12.10;;
48203;SDS011;33994;50.998;5.864;2023-04-28T02:54:17;24.15;;;12.18;;
48203;SDS011;33994;50.998;5.864;2023-04-28T02:57:22;22.02;;;12.95;;
48203;SDS011;33994;50.998;5.864;2023-04-28T03:00:25;23.38;;;12.68;;
48203;SDS011;33994;50.998;5.864;2023-04-28T03:03:28;23.95;;;12.40;;
48203;SDS011;33994;50.998;5.864;2023-04-28T03:06:31;22.25;;;12.50;;
48203;SDS011;33994;50.998;5.864;2023-04-28T03:09:35;26.05;;;13.23;;
48203;SDS011;33994;50.998;5.864;2023-04-28T03:12:39;23.70;;;13.30;;
48203;SDS011;33994;50.998;5.864;2023-04-28T03:15:42;24.17;;;12.65;;
48203;SDS011;33994;50.998;5.864;2023-04-28T03:18:46;31.88;;;14.00;;
48203;SDS011;33994;50.998;5.864;2023-04-28T03:21:49;22.63;;;12.23;;
48203;SDS011;33994;50.998;5.864;2023-04-28T03:24:52;26.40;;;12.32;;
48203;SDS011;33994;50.998;5.864;2023-04-28T03:27:56;23.80;;;11.40;;
48203;SDS011;33994;50.998;5.864;2023-04-28T03:30:59;20.70;;;12.25;;
48203;SDS011;33994;50.998;5.864;2023-04-28T03:34:03;23.00;;;12.40;;
48203;SDS011;33994;50.998;5.864;2023-04-28T03:37:06;21.70;;;11.93;;
48203;SDS011;33994;50.998;5.864;2023-04-28T03:40:09;26.20;;;12.27;;
48203;SDS011;33994;50.998;5.864;2023-04-28T03:43:15;22.80;;;12.60;;
48203;SDS011;33994;50.998;5.864;2023-04-28T03:46:18;24.67;;;12.45;;
48203;SDS011;33994;50.998;5.864;2023-04-28T03:49:21;20.75;;;12.80;;
48203;SDS011;33994;50.998;5.864;2023-04-28T03:52:24;27.20;;;12.68;;
48203;SDS011;33994;50.998;5.864;2023-04-28T03:55:28;23.70;;;13.20;;
48203;SDS011;33994;50.998;5.864;2023-04-28T03:58:33;20.33;;;13.07;;
48203;SDS011;33994;50.998;5.864;2023-04-28T04:01:36;24.02;;;13.70;;
48203;SDS011;33994;50.998;5.864;2023-04-28T04:04:39;25.45;;;13.65;;
48203;SDS011;33994;50.998;5.864;2023-04-28T04:07:42;21.55;;;13.60;;
48203;SDS011;33994;50.998;5.864;2023-04-28T04:10:46;21.58;;;13.43;;
48203;SDS011;33994;50.998;5.864;2023-04-28T04:13:50;25.15;;;13.73;;
48203;SDS011;33994;50.998;5.864;2023-04-28T04:16:53;21.20;;;12.43;;
48203;SDS011;33994;50.998;5.864;2023-04-28T04:19:56;24.73;;;13.20;;
48203;SDS011;33994;50.998;5.864;2023-04-28T04:22:59;22.92;;;13.05;;
48203;SDS011;33994;50.998;5.864;2023-04-28T04:26:02;23.75;;;12.70;;
48203;SDS011;33994;50.998;5.864;2023-04-28T04:29:07;21.65;;;11.95;;
48203;SDS011;33994;50.998;5.864;2023-04-28T04:32:10;18.23;;;12.93;;
48203;SDS011;33994;50.998;5.864;2023-04-28T04:35:13;17.17;;;12.32;;
48203;SDS011;33994;50.998;5.864;2023-04-28T04:38:16;21.65;;;12.93;;
48203;SDS011;33994;50.998;5.864;2023-04-28T04:41:19;21.73;;;12.50;;
48203;SDS011;33994;50.998;5.864;2023-04-28T04:44:24;20.70;;;12.07;;
48203;SDS011;33994;50.998;5.864;2023-04-28T04:47:28;21.05;;;11.48;;
48203;SDS011;33994;50.998;5.864;2023-04-28T04:50:31;20.13;;;12.75;;
48203;SDS011;33994;50.998;5.864;2023-04-28T04:53:34;20.15;;;11.80;;
48203;SDS011;33994;50.998;5.864;2023-04-28T04:56:37;16.35;;;11.20;;
48203;SDS011;33994;50.998;5.864;2023-04-28T04:59:42;17.20;;;11.15;;
48203;SDS011;33994;50.998;5.864;2023-04-28T05:02:44;19.75;;;11.35;;
48203;SDS011;33994;50.998;5.864;2023-04-28T05:05:48;17.45;;;10.73;;
48203;SDS011;33994;50.998;5.864;2023-04-28T05:08:51;24.00;;;11.30;;
48203;SDS011;33994;50.998;5.864;2023-04-28T05:11:54;17.98;;;11.52;;
48203;SDS011;33994;50.998;5.864;2023-04-28T05:14:59;16.98;;;10.68;;
48203;SDS011;33994;50.998;5.864;2023-04-28T05:18:02;19.63;;;11.23;;
48203;SDS011;33994;50.998;5.864;2023-04-28T05:21:05;14.98;;;11.23;;
48203;SDS011;33994;50.998;5.864;2023-04-28T05:24:08;17.52;;;11.15;;
48203;SDS011;33994;50.998;5.864;2023-04-28T05:27:11;18.55;;;11.35;;
48203;SDS011;33994;50.998;5.864;2023-04-28T05:30:15;15.25;;;9.75;;
48203;SDS011;33994;50.998;5.864;2023-04-28T05:33:19;18.77;;;10.55;;
48203;SDS011;33994;50.998;5.864;2023-04-28T05:36:22;21.48;;;12.35;;
48203;SDS011;33994;50.998;5.864;2023-04-28T05:39:25;19.88;;;10.30;;
48203;SDS011;33994;50.998;5.864;2023-04-28T05:42:28;17.90;;;11.18;;
48203;SDS011;33994;50.998;5.864;2023-04-28T05:45:33;19.67;;;11.15;;
48203;SDS011;33994;50.998;5.864;2023-04-28T05:48:36;15.25;;;10.48;;
48203;SDS011;33994;50.998;5.864;2023-04-28T05:51:39;16.20;;;10.73;;
48203;SDS011;33994;50.998;5.864;2023-04-28T05:54:42;17.92;;;10.05;;
48203;SDS011;33994;50.998;5.864;2023-04-28T05:57:45;18.67;;;9.68;;
48203;SDS011;33994;50.998;5.864;2023-04-28T06:00:50;15.25;;;10.68;;
48203;SDS011;33994;50.998;5.864;2023-04-28T06:03:53;16.35;;;9.90;;
48203;SDS011;33994;50.998;5.864;2023-04-28T06:06:56;19.45;;;11.18;;
48203;SDS011;33994;50.998;5.864;2023-04-28T06:10:00;16.27;;;10.95;;
48203;SDS011;33994;50.998;5.864;2023-04-28T06:13:03;16.13;;;10.77;;
48203;SDS011;33994;50.998;5.864;2023-04-28T06:16:07;16.13;;;10.65;;
48203;SDS011;33994;50.998;5.864;2023-04-28T06:19:11;19.55;;;10.20;;
48203;SDS011;33994;50.998;5.864;2023-04-28T06:22:14;21.70;;;10.23;;
48203;SDS011;33994;50.998;5.864;2023-04-28T06:25:17;22.10;;;10.50;;
48203;SDS011;33994;50.998;5.864;2023-04-28T06:28:21;17.52;;;9.88;;
48203;SDS011;33994;50.998;5.864;2023-04-28T06:31:25;14.82;;;10.10;;
48203;SDS011;33994;50.998;5.864;2023-04-28T06:34:28;18.80;;;10.13;;
48203;SDS011;33994;50.998;5.864;2023-04-28T06:37:31;18.23;;;10.52;;
48203;SDS011;33994;50.998;5.864;2023-04-28T06:40:34;16.50;;;10.48;;
48203;SDS011;33994;50.998;5.864;2023-04-28T06:43:38;17.45;;;11.02;;
48203;SDS011;33994;50.998;5.864;2023-04-28T06:46:42;13.35;;;10.20;;
48203;SDS011;33994;50.998;5.864;2023-04-28T06:49:45;16.63;;;10.07;;
48203;SDS011;33994;50.998;5.864;2023-04-28T06:52:48;17.65;;;10.57;;
48203;SDS011;33994;50.998;5.864;2023-04-28T06:55:51;15.85;;;10.63;;
48203;SDS011;33994;50.998;5.864;2023-04-28T06:58:54;16.88;;;11.48;;
48203;SDS011;33994;50.998;5.864;2023-04-28T07:01:59;18.25;;;10.02;;
48203;SDS011;33994;50.998;5.864;2023-04-28T07:05:02;16.63;;;9.50;;
48203;SDS011;33994;50.998;5.864;2023-04-28T07:08:06;16.80;;;10.20;;
48203;SDS011;33994;50.998;5.864;2023-04-28T07:11:09;21.23;;;10.70;;
48203;SDS011;33994;50.998;5.864;2023-04-28T07:14:12;21.27;;;10.25;;
48203;SDS011;33994;50.998;5.864;2023-04-28T07:17:17;15.57;;;9.07;;
48203;SDS011;33994;50.998;5.864;2023-04-28T07:20:20;16.52;;;9.90;;
48203;SDS011;33994;50.998;5.864;2023-04-28T07:23:23;17.08;;;9.55;;
48203;SDS011;33994;50.998;5.864;2023-04-28T07:26:26;17.08;;;10.15;;
48203;SDS011;33994;50.998;5.864;2023-04-28T07:29:30;19.83;;;9.55;;
48203;SDS011;33994;50.998;5.864;2023-04-28T07:32:35;16.55;;;9.55;;
48203;SDS011;33994;50.998;5.864;2023-04-28T07:35:38;19.20;;;9.55;;
48203;SDS011;33994;50.998;5.864;2023-04-28T07:38:41;16.05;;;9.73;;
48203;SDS011;33994;50.998;5.864;2023-04-28T07:41:44;13.00;;;9.45;;
48203;SDS011;33994;50.998;5.864;2023-04-28T07:44:47;17.27;;;9.85;;
48203;SDS011;33994;50.998;5.864;2023-04-28T07:47:52;14.25;;;9.57;;
48203;SDS011;33994;50.998;5.864;2023-04-28T07:50:55;20.70;;;10.02;;
48203;SDS011;33994;50.998;5.864;2023-04-28T07:53:58;16.65;;;9.02;;
48203;SDS011;33994;50.998;5.864;2023-04-28T07:57:02;12.15;;;9.18;;
48203;SDS011;33994;50.998;5.864;2023-04-28T08:00:05;17.05;;;9.43;;
48203;SDS011;33994;50.998;5.864;2023-04-28T08:03:10;16.73;;;9.73;;
48203;SDS011;33994;50.998;5.864;2023-04-28T08:06:13;15.13;;;8.45;;
48203;SDS011;33994;50.998;5.864;2023-04-28T08:09:17;16.17;;;9.20;;
48203;SDS011;33994;50.998;5.864;2023-04-28T08:12:20;12.95;;;9.07;;
48203;SDS011;33994;50.998;5.864;2023-04-28T08:15:23;16.13;;;10.13;;
48203;SDS011;33994;50.998;5.864;2023-04-28T08:18:28;9.57;;;6.75;;
48203;SDS011;33994;50.998;5.864;2023-04-28T08:21:31;13.85;;;8.45;;
48203;SDS011;33994;50.998;5.864;2023-04-28T08:24:34;14.00;;;8.50;;
48203;SDS011;33994;50.998;5.864;2023-04-28T08:27:38;9.50;;;7.07;;
48203;SDS011;33994;50.998;5.864;2023-04-28T08:30:41;9.80;;;6.28;;
48203;SDS011;33994;50.998;5.864;2023-04-28T08:33:46;7.28;;;5.32;;
48203;SDS011;33994;50.998;5.864;2023-04-28T08:36:50;9.20;;;6.10;;
48203;SDS011;33994;50.998;5.864;2023-04-28T08:39:53;12.43;;;8.80;;
48203;SDS011;33994;50.998;5.864;2023-04-28T08:42:56;10.23;;;8.02;;
48203;SDS011;33994;50.998;5.864;2023-04-28T08:46:00;13.90;;;8.65;;
48203;SDS011;33994;50.998;5.864;2023-04-28T08:49:11;14.32;;;9.35;;
48203;SDS011;33994;50.998;5.864;2023-04-28T08:52:16;14.75;;;9.77;;
48203;SDS011;33994;50.998;5.864;2023-04-28T08:55:20;11.43;;;8.85;;
48203;SDS011;33994;50.998;5.864;2023-04-28T08:58:25;12.35;;;9.45;;
48203;SDS011;33994;50.998;5.864;2023-04-28T09:01:29;13.07;;;9.13;;
48203;SDS011;33994;50.998;5.864;2023-04-28T09:04:33;10.00;;;7.97;;
48203;SDS011;33994;50.998;5.864;2023-04-28T09:07:37;11.80;;;7.47;;
48203;SDS011;33994;50.998;5.864;2023-04-28T09:10:40;12.48;;;7.85;;
48203;SDS011;33994;50.998;5.864;2023-04-28T09:13:43;9.88;;;7.22;;
48203;SDS011;33994;50.998;5.864;2023-04-28T09:16:46;10.40;;;7.10;;
48203;SDS011;33994;50.998;5.864;2023-04-28T09:19:51;11.38;;;7.80;;
48203;SDS011;33994;50.998;5.864;2023-04-28T09:22:54;9.68;;;7.47;;
48203;SDS011;33994;50.998;5.864;2023-04-28T09:25:59;8.70;;;7.03;;
48203;SDS011;33994;50.998;5.864;2023-04-28T09:29:10;11.30;;;7.72;;
48203;SDS011;33994;50.998;5.864;2023-04-28T09:32:14;9.88;;;7.50;;
48203;SDS011;33994;50.998;5.864;2023-04-28T09:35:24;9.48;;;6.97;;
48203;SDS011;33994;50.998;5.864;2023-04-28T09:38:42;10.52;;;7.03;;
48203;SDS011;33994;50.998;5.864;2023-04-28T09:41:46;9.43;;;7.03;;
48203;SDS011;33994;50.998;5.864;2023-04-28T09:44:51;10.20;;;6.65;;
48203;SDS011;33994;50.998;5.864;2023-04-28T09:47:56;11.02;;;8.02;;
48203;SDS011;33994;50.998;5.864;2023-04-28T09:51:19;9.63;;;7.53;;
48203;SDS011;33994;50.998;5.864;2023-04-28T09:54:22;10.05;;;7.68;;
48203;SDS011;33994;50.998;5.864;2023-04-28T09:57:29;8.90;;;6.60;;
48203;SDS011;33994;50.998;5.864;2023-04-28T10:00:33;9.48;;;6.05;;
48203;SDS011;33994;50.998;5.864;2023-04-28T10:03:38;7.32;;;5.03;;
48203;SDS011;33994;50.998;5.864;2023-04-28T10:06:42;7.10;;;5.35;;
48203;SDS011;33994;50.998;5.864;2023-04-28T10:09:45;6.43;;;4.90;;
48203;SDS011;33994;50.998;5.864;2023-04-28T10:12:49;8.00;;;5.13;;
48203;SDS011;33994;50.998;5.864;2023-04-28T10:15:53;7.97;;;5.18;;
48203;SDS011;33994;50.998;5.864;2023-04-28T10:18:56;8.38;;;5.30;;
48203;SDS011;33994;50.998;5.864;2023-04-28T10:22:04;6.95;;;5.22;;
48203;SDS011;33994;50.998;5.864;2023-04-28T10:25:24;7.00;;;5.47;;
48203;SDS011;33994;50.998;5.864;2023-04-28T10:28:28;7.35;;;5.07;;
48203;SDS011;33994;50.998;5.864;2023-04-28T10:31:31;7.95;;;4.68;;
48203;SDS011;33994;50.998;5.864;2023-04-28T10:34:35;5.20;;;4.40;;
48203;SDS011;33994;50.998;5.864;2023-04-28T10:41:21;8.60;;;4.22;;
48203;SDS011;33994;50.998;5.864;2023-04-28T10:44:42;5.15;;;3.67;;
48203;SDS011;33994;50.998;5.864;2023-04-28T10:47:58;3.70;;;3.30;;
48203;SDS011;33994;50.998;5.864;2023-04-28T10:51:21;4.93;;;3.80;;
48203;SDS011;33994;50.998;5.864;2023-04-28T10:54:35;6.35;;;4.97;;
48203;SDS011;33994;50.998;5.864;2023-04-28T10:57:38;4.15;;;3.70;;
48203;SDS011;33994;50.998;5.864;2023-04-28T11:00:42;5.47;;;4.22;;
48203;SDS011;33994;50.998;5.864;2023-04-28T11:03:47;4.88;;;4.15;;
48203;SDS011;33994;50.998;5.864;2023-04-28T11:07:10;5.47;;;4.50;;
48203;SDS011;33994;50.998;5.864;2023-04-28T11:10:15;5.38;;;4.00;;
48203;SDS011;33994;50.998;5.864;2023-04-28T11:13:25;4.63;;;3.95;;
48203;SDS011;33994;50.998;5.864;2023-04-28T11:16:28;5.10;;;2.70;;
48203;SDS011;33994;50.998;5.864;2023-04-28T11:19:33;3.92;;;2.95;;
48203;SDS011;33994;50.998;5.864;2023-04-28T11:22:37;3.58;;;3.03;;
48203;SDS011;33994;50.998;5.864;2023-04-28T11:42:50;4.78;;;3.60;;
48203;SDS011;33994;50.998;5.864;2023-04-28T11:45:54;3.22;;;2.78;;
48203;SDS011;33994;50.998;5.864;2023-04-28T11:49:01;3.90;;;2.97;;
48203;SDS011;33994;50.998;5.864;2023-04-28T11:52:05;3.80;;;2.95;;
48203;SDS011;33994;50.998;5.864;2023-04-28T11:55:09;8.50;;;2.70;;
48203;SDS011;33994;50.998;5.864;2023-04-28T11:58:20;8.43;;;2.00;;
48203;SDS011;33994;50.998;5.864;2023-04-28T12:01:23;2.42;;;1.92;;
48203;SDS011;33994;50.998;5.864;2023-04-28T12:04:27;2.83;;;1.70;;
48203;SDS011;33994;50.998;5.864;2023-04-28T12:07:38;2.58;;;1.67;;
48203;SDS011;33994;50.998;5.864;2023-04-28T12:10:52;2.45;;;1.67;;
48203;SDS011;33994;50.998;5.864;2023-04-28T12:14:11;2.88;;;1.17;;
48203;SDS011;33994;50.998;5.864;2023-04-28T12:17:21;4.53;;;2.05;;
48203;SDS011;33994;50.998;5.864;2023-04-28T12:20:35;3.40;;;1.67;;
48203;SDS011;33994;50.998;5.864;2023-04-28T12:23:39;3.33;;;1.63;;
48203;SDS011;33994;50.998;5.864;2023-04-28T12:26:42;3.08;;;1.63;;
48203;SDS011;33994;50.998;5.864;2023-04-28T12:29:47;3.08;;;1.20;;
48203;SDS011;33994;50.998;5.864;2023-04-28T12:32:50;2.13;;;1.38;;
48203;SDS011;33994;50.998;5.864;2023-04-28T12:35:54;1.90;;;1.15;;
48203;SDS011;33994;50.998;5.864;2023-04-28T12:38:58;1.80;;;1.10;;
48203;SDS011;33994;50.998;5.864;2023-04-28T12:42:02;3.58;;;0.80;;
48203;SDS011;33994;50.998;5.864;2023-04-28T12:45:07;1.48;;;0.90;;
48203;SDS011;33994;50.998;5.864;2023-04-28T12:48:10;1.70;;;0.70;;
48203;SDS011;33994;50.998;5.864;2023-04-28T12:51:13;1.48;;;0.77;;
48203;SDS011;33994;50.998;5.864;2023-04-28T12:54:16;1.75;;;1.00;;
48203;SDS011;33994;50.998;5.864;2023-04-28T12:57:20;1.20;;;0.88;;
48203;SDS011;33994;50.998;5.864;2023-04-28T13:00:24;1.83;;;0.90;;
48203;SDS011;33994;50.998;5.864;2023-04-28T13:03:27;2.58;;;0.70;;
48203;SDS011;33994;50.998;5.864;2023-04-28T13:06:31;2.00;;;1.05;;
48203;SDS011;33994;50.998;5.864;2023-04-28T13:09:34;1.85;;;1.17;;
48203;SDS011;33994;50.998;5.864;2023-04-28T13:12:38;3.47;;;1.30;;
48203;SDS011;33994;50.998;5.864;2023-04-28T13:15:42;1.35;;;1.25;;
48203;SDS011;33994;50.998;5.864;2023-04-28T13:18:45;3.95;;;1.10;;
48203;SDS011;33994;50.998;5.864;2023-04-28T13:21:48;2.08;;;1.30;;
48203;SDS011;33994;50.998;5.864;2023-04-28T13:24:52;1.50;;;1.00;;
48203;SDS011;33994;50.998;5.864;2023-04-28T13:27:55;2.47;;;1.20;;
48203;SDS011;33994;50.998;5.864;2023-04-28T13:30:59;1.92;;;1.30;;
48203;SDS011;33994;50.998;5.864;2023-04-28T13:34:02;1.83;;;1.00;;
48203;SDS011;33994;50.998;5.864;2023-04-28T13:37:06;1.25;;;1.15;;
48203;SDS011;33994;50.998;5.864;2023-04-28T13:40:09;2.38;;;1.30;;
48203;SDS011;33994;50.998;5.864;2023-04-28T13:43:13;2.08;;;1.02;;
48203;SDS011;33994;50.998;5.864;2023-04-28T13:46:18;3.72;;;1.40;;
48203;SDS011;33994;50.998;5.864;2023-04-28T13:49:21;1.73;;;1.13;;
48203;SDS011;33994;50.998;5.864;2023-04-28T13:54:15;1.57;;;1.27;;
48203;SDS011;33994;50.998;5.864;2023-04-28T13:57:18;2.67;;;1.55;;
48203;SDS011;33994;50.998;5.864;2023-04-28T14:00:21;2.65;;;1.90;;
48203;SDS011;33994;50.998;5.864;2023-04-28T14:03:25;2.38;;;1.67;;
48203;SDS011;33994;50.998;5.864;2023-04-28T14:06:28;2.53;;;2.00;;
48203;SDS011;33994;50.998;5.864;2023-04-28T14:09:33;4.05;;;2.05;;
48203;SDS011;33994;50.998;5.864;2023-04-28T14:12:36;2.95;;;1.90;;
48203;SDS011;33994;50.998;5.864;2023-04-28T14:15:39;4.80;;;1.92;;
48203;SDS011;33994;50.998;5.864;2023-04-28T14:18:42;1.70;;;1.60;;
48203;SDS011;33994;50.998;5.864;2023-04-28T14:21:45;6.85;;;1.60;;
48203;SDS011;33994;50.998;5.864;2023-04-28T14:24:50;1.95;;;1.70;;
48203;SDS011;33994;50.998;5.864;2023-04-28T14:27:53;1.75;;;1.20;;
48203;SDS011;33994;50.998;5.864;2023-04-28T14:30:56;1.45;;;1.30;;
48203;SDS011;33994;50.998;5.864;2023-04-28T14:34:00;2.33;;;1.20;;
48203;SDS011;33994;50.998;5.864;2023-04-28T14:37:03;0.95;;;0.95;;
48203;SDS011;33994;50.998;5.864;2023-04-28T14:40:08;2.42;;;1.50;;
48203;SDS011;33994;50.998;5.864;2023-04-28T14:43:11;3.65;;;1.85;;
48203;SDS011;33994;50.998;5.864;2023-04-28T14:46:14;3.03;;;1.45;;
48203;SDS011;33994;50.998;5.864;2023-04-28T14:49:17;3.65;;;1.40;;
48203;SDS011;33994;50.998;5.864;2023-04-28T14:52:20;2.05;;;1.48;;
48203;SDS011;33994;50.998;5.864;2023-04-28T14:55:25;2.95;;;1.17;;
48203;SDS011;33994;50.998;5.864;2023-04-28T14:58:28;3.30;;;1.40;;
48203;SDS011;33994;50.998;5.864;2023-04-28T15:01:31;2.45;;;1.40;;
48203;SDS011;33994;50.998;5.864;2023-04-28T15:04:34;3.55;;;1.50;;
48203;SDS011;33994;50.998;5.864;2023-04-28T15:07:37;1.90;;;1.17;;
48203;SDS011;33994;50.998;5.864;2023-04-28T15:10:42;2.28;;;1.20;;
48203;SDS011;33994;50.998;5.864;2023-04-28T15:13:45;1.27;;;0.98;;
48203;SDS011;33994;50.998;5.864;2023-04-28T15:16:48;1.38;;;0.88;;
48203;SDS011;33994;50.998;5.864;2023-04-28T15:19:52;1.58;;;0.98;;
48203;SDS011;33994;50.998;5.864;2023-04-28T15:22:55;2.08;;;1.00;;
48203;SDS011;33994;50.998;5.864;2023-04-28T15:26:00;1.10;;;1.00;;
48203;SDS011;33994;50.998;5.864;2023-04-28T15:29:03;1.48;;;1.20;;
48203;SDS011;33994;50.998;5.864;2023-04-28T15:32:06;1.42;;;1.20;;
48203;SDS011;33994;50.998;5.864;2023-04-28T15:35:09;2.15;;;1.13;;
48203;SDS011;33994;50.998;5.864;2023-04-28T15:38:13;2.03;;;1.23;;
48203;SDS011;33994;50.998;5.864;2023-04-28T15:41:17;1.23;;;1.13;;
48203;SDS011;33994;50.998;5.864;2023-04-28T15:44:20;1.30;;;1.20;;
48203;SDS011;33994;50.998;5.864;2023-04-28T15:47:24;3.42;;;1.20;;
48203;SDS011;33994;50.998;5.864;2023-04-28T15:50:27;1.60;;;1.30;;
48203;SDS011;33994;50.998;5.864;2023-04-28T15:53:30;2.17;;;1.40;;
48203;SDS011;33994;50.998;5.864;2023-04-28T15:56:35;1.25;;;1.10;;
48203;SDS011;33994;50.998;5.864;2023-04-28T15:59:38;1.92;;;1.10;;
48203;SDS011;33994;50.998;5.864;2023-04-28T16:02:41;1.17;;;0.98;;
48203;SDS011;33994;50.998;5.864;2023-04-28T16:05:45;1.30;;;1.20;;
48203;SDS011;33994;50.998;5.864;2023-04-28T16:08:48;1.83;;;1.40;;
48203;SDS011;33994;50.998;5.864;2023-04-28T16:11:52;1.90;;;1.42;;
48203;SDS011;33994;50.998;5.864;2023-04-28T16:14:55;2.17;;;1.67;;
48203;SDS011;33994;50.998;5.864;2023-04-28T16:17:59;1.73;;;1.25;;
48203;SDS011;33994;50.998;5.864;2023-04-28T16:21:02;1.60;;;1.25;;
48203;SDS011;33994;50.998;5.864;2023-04-28T16:24:05;1.95;;;1.20;;
48203;SDS011;33994;50.998;5.864;2023-04-28T16:27:10;1.98;;;1.10;;
48203;SDS011;33994;50.998;5.864;2023-04-28T16:30:13;1.70;;;1.02;;
48203;SDS011;33994;50.998;5.864;2023-04-28T16:33:17;2.03;;;1.30;;
48203;SDS011;33994;50.998;5.864;2023-04-28T16:36:20;1.98;;;1.55;;
48203;SDS011;33994;50.998;5.864;2023-04-28T16:39:23;3.25;;;1.60;;
48203;SDS011;33994;50.998;5.864;2023-04-28T16:42:27;2.20;;;1.48;;
48203;SDS011;33994;50.998;5.864;2023-04-28T16:45:31;1.98;;;1.35;;
48203;SDS011;33994;50.998;5.864;2023-04-28T16:48:34;4.07;;;1.40;;
48203;SDS011;33994;50.998;5.864;2023-04-28T16:51:37;2.13;;;1.48;;
48203;SDS011;33994;50.998;5.864;2023-04-28T16:54:40;2.25;;;1.70;;
48203;SDS011;33994;50.998;5.864;2023-04-28T16:57:45;3.08;;;1.50;;
48203;SDS011;33994;50.998;5.864;2023-04-28T17:00:48;3.10;;;1.45;;
48203;SDS011;33994;50.998;5.864;2023-04-28T17:03:51;1.67;;;1.42;;
48203;SDS011;33994;50.998;5.864;2023-04-28T17:06:55;4.32;;;1.20;;
48203;SDS011;33994;50.998;5.864;2023-04-28T17:09:58;2.33;;;1.60;;
48203;SDS011;33994;50.998;5.864;2023-04-28T17:13:02;1.83;;;1.52;;
48203;SDS011;33994;50.998;5.864;2023-04-28T17:16:06;6.75;;;1.65;;
48203;SDS011;33994;50.998;5.864;2023-04-28T17:19:09;3.00;;;1.52;;
48203;SDS011;33994;50.998;5.864;2023-04-28T17:22:13;2.00;;;1.30;;
48203;SDS011;33994;50.998;5.864;2023-04-28T17:25:16;2.92;;;1.60;;
48203;SDS011;33994;50.998;5.864;2023-04-28T17:28:20;2.15;;;1.35;;
48203;SDS011;33994;50.998;5.864;2023-04-28T17:31:23;4.00;;;1.40;;
48203;SDS011;33994;50.998;5.864;2023-04-28T17:34:27;2.03;;;1.30;;
48203;SDS011;33994;50.998;5.864;2023-04-28T17:37:31;2.03;;;1.17;;
48203;SDS011;33994;50.998;5.864;2023-04-28T17:40:35;1.55;;;1.00;;
48203;SDS011;33994;50.998;5.864;2023-04-28T17:43:40;1.88;;;1.42;;
48203;SDS011;33994;50.998;5.864;2023-04-28T17:46:43;5.13;;;1.58;;
48203;SDS011;33994;50.998;5.864;2023-04-28T17:49:46;2.20;;;1.50;;
48203;SDS011;33994;50.998;5.864;2023-04-28T17:52:49;2.88;;;1.10;;
48203;SDS011;33994;50.998;5.864;2023-04-28T17:55:52;2.45;;;1.40;;
48203;SDS011;33994;50.998;5.864;2023-04-28T17:58:57;2.40;;;1.33;;
48203;SDS011;33994;50.998;5.864;2023-04-28T18:02:00;1.88;;;1.40;;
48203;SDS011;33994;50.998;5.864;2023-04-28T18:05:04;2.38;;;1.35;;
48203;SDS011;33994;50.998;5.864;2023-04-28T18:08:07;1.75;;;1.38;;
48203;SDS011;33994;50.998;5.864;2023-04-28T18:11:10;2.33;;;1.70;;
48203;SDS011;33994;50.998;5.864;2023-04-28T18:14:15;3.92;;;1.40;;
48203;SDS011;33994;50.998;5.864;2023-04-28T18:17:17;4.63;;;1.40;;
48203;SDS011;33994;50.998;5.864;2023-04-28T18:20:21;3.05;;;1.63;;
48203;SDS011;33994;50.998;5.864;2023-04-28T18:23:24;2.25;;;1.10;;
48203;SDS011;33994;50.998;5.864;2023-04-28T18:26:27;1.95;;;1.10;;
48203;SDS011;33994;50.998;5.864;2023-04-28T18:29:31;1.60;;;1.15;;
48203;SDS011;33994;50.998;5.864;2023-04-28T18:32:35;2.03;;;1.30;;
48203;SDS011;33994;50.998;5.864;2023-04-28T18:35:38;3.22;;;1.45;;
48203;SDS011;33994;50.998;5.864;2023-04-28T18:38:42;2.15;;;1.13;;